Active alerts

Gallatin County, MT
  Details for Gallatin County, MT Winter Storm Warning
Gallatin County, MT
  Details for Gallatin County, MT Hydrologic Outlook

Thunder radar more information blitzortung!


Rain radar more information rain snow radar



Nearby METAR Reports

   
KNUQ - Mountain View, CA
Updated: Nov 21 2019 8:56 am
NOT Current
  
  
   Wind: Calm
Wind: Calm
Barometer: 29.86 inHg
KNUQ 211656Z AUTO A2986 RMK AO2 SLP116 PWINO $
KSFO - San Francisco, CA
Updated: Jan 18 2020 4:56 am
Mostly Cloudy  
Mostly Cloudy  
   Wind: East 8.1 mph
Wind: East 8.1 mph
Temperature: 46.4°F
Wind Chill: 42.8°F
Dew Point: 39.2°F
Humidity: 76%
Barometer: 30.31 inHg
Clouds: Mostly Cloudy
Visibility: 10 mi
Cloud details: Few Clouds 1800 ft,
Few Clouds 18000 ft,
Mostly Cloudy 20000 ft
KSFO 181256Z 08007KT 10SM FEW018 FEW180 BKN200 08/04 A3031 RMK AO2 SLP263 T00830039
KSJC - San Jose, CA
Updated: Jan 18 2020 4:53 am
Clear  
Clear  
   Wind: SE 4.6 mph
Wind: SE 4.6 mph
Temperature: 39.2°F
Wind Chill: 35.6°F
Dew Point: 35.6°F
Humidity: 87%
Barometer: 30.31 inHg
Clouds: Clear
Visibility: 10 mi
Cloud details: Clear ft
KSJC 181253Z AUTO 14004KT 10SM CLR 04/02 A3031 RMK AO2 SLP262 T00390022
KOAK - Oakland, CA
Updated: Jan 18 2020 4:53 am
Mostly Cloudy  
Mostly Cloudy  
   Wind: East 6.9 mph
Wind: East 6.9 mph
Temperature: 42.8°F
Wind Chill: 39.2°F
Dew Point: 37.4°F
Humidity: 81%
Barometer: 30.32 inHg
Clouds: Mostly Cloudy
Visibility: 10 mi
Cloud details: Few Clouds 1800 ft,
Mostly Cloudy 20000 ft
KOAK 181253Z 08006KT 10SM FEW018 BKN200 06/03 A3032 RMK AO2 SLP267 T00610028
KMRY - Monterey, CA
Updated: Jan 18 2020 4:54 am
Clear  
Clear  
   Wind: Calm
Wind: Calm
Temperature: 41°F
Dew Point: 35.6°F
Humidity: 81%
Barometer: 30.28 inHg
Clouds: Clear
Visibility: 10 mi
Cloud details: Clear ft
KMRY 181254Z AUTO 00000KT 10SM CLR 05/02 A3028 RMK AO2 SLP266 T00500017
KWYS - West Yellowstone, MT
Updated: Jan 18 2020 5:10 am
Light Snow, Overcast  
Light Snow, Overcast  
   Wind: SW 8.1 mph
Wind: SW 8.1 mph
Temperature: 14°F
Wind Chill: 3.2°F
Dew Point: 12.2°F
Humidity: 92%
Barometer: 30.24 inHg
Clouds: Overcast
Visibility: 5 mi
Cloud details: Mostly Cloudy 1700 ft,
Mostly Cloudy 7000 ft,
Overcast 8500 ft
KWYS 181310Z AUTO 23007KT 5SM -SN BKN017 BKN070 OVC085 M10/M11 A3024 RMK AO2
KDCA - Washington, DC
Updated: Jan 18 2020 4:52 am
Overcast  
Overcast  
   Wind: SSE 8.1 mph
Wind: SSE 8.1 mph
Temperature: 26.6°F
Wind Chill: 17.6°F
Dew Point: 21.2°F
Humidity: 80%
Barometer: 30.57 inHg
Clouds: Overcast
Visibility: 10 mi
Cloud details: Few Clouds 1500 ft,
Overcast 4800 ft
KDCA 181252Z 15007KT 10SM FEW015 OVC048 M03/M06 A3057 RMK AO2 SNE14 SLP352 P0001 T10281061 $
KIAD - Washington Dulles, VA
Updated: Jan 18 2020 4:52 am
Overcast  
Overcast  
   Wind: SE 5.8 mph
Wind: SE 5.8 mph
Temperature: 26.6°F
Wind Chill: 19.4°F
Dew Point: 21.2°F
Humidity: 80%
Barometer: 30.52 inHg
Clouds: Overcast
Visibility: 10 mi
Cloud details: Overcast 5000 ft
KIAD 181252Z 14005KT 10SM OVC050 M03/M06 A3052 RMK AO2 SNE1157 SLP338 P0000 T10331061
KMIA - Miami Beach, FL
Updated: Jan 18 2020 4:53 am
Mostly Cloudy  
Mostly Cloudy  
   Wind: East 20.7 mph<br />Gust to 20.7 mph
Wind: East 20.7 mph
Gust to 20.7 mph
Temperature: 73.4°F
Dew Point: 55.4°F
Humidity: 53%
Barometer: 30.29 inHg
Clouds: Mostly Cloudy
Visibility: 10 mi
Cloud details: Mostly Cloudy 4000 ft
KMIA 181253Z 09018G24KT 10SM BKN040 23/13 A3029 RMK AO2 SLP256 T02280133

Script developed by  Saratoga-weather.org Adapted for the template by  Weerstation Leuven

You find our weather info also at:

Weather Underground

Citizen Weather Observer Program (CWOP)

Equipment we use:

Weather-station
Ambient WS-1400-IP

Weather-program
Meteobridge

Weather-server
TP-LINK TL-MR3020

Ambient WS-1400-IP

Meteobridge

TP-LINK TL-MR3020